sensor_id;sensor_type;location;lat;lon;timestamp;pressure;altitude;pressure_sealevel;temperature;humidity
60244;BME280;46106;51.468;5.814;2023-10-19T00:00:46;99022.03;;;11.29;100.00
60244;BME280;46106;51.468;5.814;2023-10-19T00:03:14;99022.19;;;11.28;100.00
60244;BME280;46106;51.468;5.814;2023-10-19T00:05:40;99021.19;;;11.29;100.00
60244;BME280;46106;51.468;5.814;2023-10-19T00:08:07;99025.63;;;11.38;100.00
60244;BME280;46106;51.468;5.814;2023-10-19T00:10:39;99026.47;;;11.38;100.00
60244;BME280;46106;51.468;5.814;2023-10-19T00:13:09;99030.41;;;11.44;100.00
60244;BME280;46106;51.468;5.814;2023-10-19T00:15:40;99029.72;;;11.50;100.00
60244;BME280;46106;51.468;5.814;2023-10-19T00:18:25;99019.78;;;11.49;100.00
60244;BME280;46106;51.468;5.814;2023-10-19T00:20:52;99022.34;;;11.51;100.00
60244;BME280;46106;51.468;5.814;2023-10-19T00:23:25;99023.56;;;11.56;100.00
60244;BME280;46106;51.468;5.814;2023-10-19T00:26:02;99026.97;;;11.58;100.00
60244;BME280;46106;51.468;5.814;2023-10-19T00:28:39;99018.75;;;11.50;100.00
60244;BME280;46106;51.468;5.814;2023-10-19T00:31:06;99030.72;;;11.57;100.00
60244;BME280;46106;51.468;5.814;2023-10-19T00:33:34;99032.09;;;11.62;100.00
60244;BME280;46106;51.468;5.814;2023-10-19T00:36:04;99026.28;;;11.65;100.00
60244;BME280;46106;51.468;5.814;2023-10-19T00:38:37;99024.38;;;11.65;100.00
60244;BME280;46106;51.468;5.814;2023-10-19T00:41:03;99038.25;;;11.64;100.00
60244;BME280;46106;51.468;5.814;2023-10-19T00:43:35;99037.25;;;11.65;100.00
60244;BME280;46106;51.468;5.814;2023-10-19T00:46:17;99032.28;;;11.68;100.00
60244;BME280;46106;51.468;5.814;2023-10-19T00:48:57;99030.19;;;11.70;100.00
60244;BME280;46106;51.468;5.814;2023-10-19T00:51:31;99023.19;;;11.68;100.00
60244;BME280;46106;51.468;5.814;2023-10-19T00:54:09;99029.19;;;11.71;100.00
60244;BME280;46106;51.468;5.814;2023-10-19T00:56:42;99021.31;;;11.68;100.00
60244;BME280;46106;51.468;5.814;2023-10-19T00:59:11;99025.59;;;11.71;100.00
60244;BME280;46106;51.468;5.814;2023-10-19T01:01:41;99017.72;;;11.68;100.00
60244;BME280;46106;51.468;5.814;2023-10-19T01:04:11;99017.00;;;11.66;100.00
60244;BME280;46106;51.468;5.814;2023-10-19T01:06:42;99021.63;;;11.73;100.00
60244;BME280;46106;51.468;5.814;2023-10-19T01:09:24;99014.25;;;11.90;100.00
60244;BME280;46106;51.468;5.814;2023-10-19T01:11:52;99016.31;;;11.80;100.00
60244;BME280;46106;51.468;5.814;2023-10-19T01:14:22;99011.84;;;11.87;100.00
60244;BME280;46106;51.468;5.814;2023-10-19T01:16:53;99011.84;;;11.87;100.00
60244;BME280;46106;51.468;5.814;2023-10-19T01:19:24;99015.44;;;11.96;100.00
60244;BME280;46106;51.468;5.814;2023-10-19T01:21:52;99012.34;;;11.91;100.00
60244;BME280;46106;51.468;5.814;2023-10-19T01:24:24;99026.91;;;12.00;100.00
60244;BME280;46106;51.468;5.814;2023-10-19T01:27:07;99015.44;;;11.96;100.00
60244;BME280;46106;51.468;5.814;2023-10-19T01:29:36;99015.59;;;12.03;100.00
60244;BME280;46106;51.468;5.814;2023-10-19T01:32:04;99011.78;;;12.12;100.00
60244;BME280;46106;51.468;5.814;2023-10-19T01:34:33;99013.50;;;12.13;100.00
60244;BME280;46106;51.468;5.814;2023-10-19T01:36:59;99015.84;;;12.24;100.00
60244;BME280;46106;51.468;5.814;2023-10-19T01:39:35;99017.75;;;12.24;100.00
60244;BME280;46106;51.468;5.814;2023-10-19T01:42:02;99005.38;;;12.28;100.00
60244;BME280;46106;51.468;5.814;2023-10-19T01:44:30;98996.41;;;12.34;100.00
60244;BME280;46106;51.468;5.814;2023-10-19T01:46:56;99005.28;;;12.44;100.00
60244;BME280;46106;51.468;5.814;2023-10-19T01:49:21;99001.16;;;12.48;100.00
60244;BME280;46106;51.468;5.814;2023-10-19T01:51:55;98998.59;;;12.47;100.00
60244;BME280;46106;51.468;5.814;2023-10-19T01:54:22;98998.72;;;12.54;100.00
60244;BME280;46106;51.468;5.814;2023-10-19T01:56:54;98998.31;;;12.65;100.00
60244;BME280;46106;51.468;5.814;2023-10-19T01:59:23;99001.06;;;12.65;100.00
60244;BME280;46106;51.468;5.814;2023-10-19T02:01:55;99004.13;;;12.70;100.00
60244;BME280;46106;51.468;5.814;2023-10-19T02:04:21;98995.16;;;12.76;100.00
60244;BME280;46106;51.468;5.814;2023-10-19T02:06:47;98995.34;;;12.75;100.00
60244;BME280;46106;51.468;5.814;2023-10-19T02:09:14;99000.16;;;12.73;100.00
60244;BME280;46106;51.468;5.814;2023-10-19T02:11:53;98992.41;;;12.76;100.00
60244;BME280;46106;51.468;5.814;2023-10-19T02:14:21;98992.09;;;12.71;100.00
60244;BME280;46106;51.468;5.814;2023-10-19T02:16:52;98999.94;;;12.82;100.00
60244;BME280;46106;51.468;5.814;2023-10-19T02:19:21;98996.44;;;12.88;100.00
60244;BME280;46106;51.468;5.814;2023-10-19T02:21:52;98992.66;;;12.90;100.00
60244;BME280;46106;51.468;5.814;2023-10-19T02:24:18;98994.75;;;12.87;100.00
60244;BME280;46106;51.468;5.814;2023-10-19T02:26:45;98992.97;;;12.95;100.00
60244;BME280;46106;51.468;5.814;2023-10-19T02:29:12;98994.03;;;12.94;100.00
60244;BME280;46106;51.468;5.814;2023-10-19T02:31:39;98993.16;;;12.93;100.00
60244;BME280;46106;51.468;5.814;2023-10-19T02:34:07;98993.81;;;12.95;100.00
60244;BME280;46106;51.468;5.814;2023-10-19T02:36:34;99000.66;;;12.99;100.00
60244;BME280;46106;51.468;5.814;2023-10-19T02:39:04;98991.28;;;12.94;100.00
60244;BME280;46106;51.468;5.814;2023-10-19T02:41:42;98992.41;;;12.99;100.00
60244;BME280;46106;51.468;5.814;2023-10-19T02:44:12;98991.06;;;12.95;100.00
60244;BME280;46106;51.468;5.814;2023-10-19T02:46:45;98983.16;;;13.00;100.00
60244;BME280;46106;51.468;5.814;2023-10-19T02:49:12;98976.22;;;13.04;100.00
60244;BME280;46106;51.468;5.814;2023-10-19T02:51:45;98981.53;;;13.06;100.00
60244;BME280;46106;51.468;5.814;2023-10-19T02:54:13;98976.16;;;13.13;100.00
60244;BME280;46106;51.468;5.814;2023-10-19T02:56:46;98974.97;;;13.15;100.00
60244;BME280;46106;51.468;5.814;2023-10-19T02:59:15;98972.41;;;13.14;100.00
60244;BME280;46106;51.468;5.814;2023-10-19T03:01:42;98975.81;;;13.16;100.00
60244;BME280;46106;51.468;5.814;2023-10-19T03:04:10;98972.88;;;13.17;100.00
60244;BME280;46106;51.468;5.814;2023-10-19T03:06:38;98971.94;;;13.25;100.00
60244;BME280;46106;51.468;5.814;2023-10-19T03:09:06;98966.94;;;13.29;100.00
60244;BME280;46106;51.468;5.814;2023-10-19T03:11:49;98971.38;;;13.30;100.00
60244;BME280;46106;51.468;5.814;2023-10-19T03:14:18;98975.19;;;13.29;100.00
60244;BME280;46106;51.468;5.814;2023-10-19T03:16:44;98973.47;;;13.28;100.00
60244;BME280;46106;51.468;5.814;2023-10-19T03:19:11;98962.81;;;13.24;100.00
60244;BME280;46106;51.468;5.814;2023-10-19T03:21:38;98957.84;;;13.28;100.00
60244;BME280;46106;51.468;5.814;2023-10-19T03:24:12;98958.31;;;13.32;100.00
60244;BME280;46106;51.468;5.814;2023-10-19T03:26:38;98962.94;;;13.31;100.00
60244;BME280;46106;51.468;5.814;2023-10-19T03:29:08;98964.19;;;13.29;100.00
60244;BME280;46106;51.468;5.814;2023-10-19T03:31:37;98955.56;;;13.32;100.00
60244;BME280;46106;51.468;5.814;2023-10-19T03:34:09;98957.59;;;13.38;100.00
60244;BME280;46106;51.468;5.814;2023-10-19T03:36:35;98953.69;;;13.32;100.00
60244;BME280;46106;51.468;5.814;2023-10-19T03:39:03;98953.00;;;13.30;100.00
60244;BME280;46106;51.468;5.814;2023-10-19T03:41:37;98944.47;;;13.25;100.00
60244;BME280;46106;51.468;5.814;2023-10-19T03:44:04;98949.28;;;13.23;100.00
60244;BME280;46106;51.468;5.814;2023-10-19T03:46:32;98942.56;;;13.26;100.00
60244;BME280;46106;51.468;5.814;2023-10-19T03:49:03;98940.00;;;13.24;100.00
60244;BME280;46106;51.468;5.814;2023-10-19T03:51:39;98940.47;;;13.28;100.00
60244;BME280;46106;51.468;5.814;2023-10-19T03:54:43;98934.59;;;13.31;100.00
60244;BME280;46106;51.468;5.814;2023-10-19T03:57:15;98932.59;;;13.24;100.00
60244;BME280;46106;51.468;5.814;2023-10-19T03:59:44;98935.63;;;13.30;100.00
60244;BME280;46106;51.468;5.814;2023-10-19T04:02:10;98937.34;;;13.31;100.00
60244;BME280;46106;51.468;5.814;2023-10-19T04:04:43;98934.94;;;13.36;100.00
60244;BME280;46106;51.468;5.814;2023-10-19T04:07:12;98930.97;;;13.38;100.00
60244;BME280;46106;51.468;5.814;2023-10-19T04:09:50;98935.13;;;13.34;100.00
60244;BME280;46106;51.468;5.814;2023-10-19T04:12:38;98936.66;;;13.37;100.00
60244;BME280;46106;51.468;5.814;2023-10-19T04:15:05;98933.06;;;13.36;100.00
60244;BME280;46106;51.468;5.814;2023-10-19T04:17:44;98933.53;;;13.40;100.00
60244;BME280;46106;51.468;5.814;2023-10-19T04:20:11;98938.06;;;13.48;100.00
60244;BME280;46106;51.468;5.814;2023-10-19T04:22:53;98932.19;;;13.51;100.00
60244;BME280;46106;51.468;5.814;2023-10-19T04:25:27;98939.22;;;13.53;100.00
60244;BME280;46106;51.468;5.814;2023-10-19T04:27:54;98939.78;;;13.49;100.00
60244;BME280;46106;51.468;5.814;2023-10-19T04:30:22;98939.41;;;13.52;100.00
60244;BME280;46106;51.468;5.814;2023-10-19T04:32:49;98941.50;;;13.50;100.00
60244;BME280;46106;51.468;5.814;2023-10-19T04:35:16;98940.63;;;13.49;100.00
60244;BME280;46106;51.468;5.814;2023-10-19T04:38:03;98948.69;;;13.51;100.00
60244;BME280;46106;51.468;5.814;2023-10-19T04:40:32;98943.69;;;13.54;100.00
60244;BME280;46106;51.468;5.814;2023-10-19T04:42:57;98941.78;;;13.55;100.00
60244;BME280;46106;51.468;5.814;2023-10-19T04:45:23;98946.63;;;13.53;100.00
60244;BME280;46106;51.468;5.814;2023-10-19T04:47:52;98948.69;;;13.51;100.00
60244;BME280;46106;51.468;5.814;2023-10-19T04:50:18;98947.00;;;13.50;100.00
60244;BME280;46106;51.468;5.814;2023-10-19T04:52:43;98948.59;;;13.44;100.00
60244;BME280;46106;51.468;5.814;2023-10-19T04:55:09;98948.50;;;13.52;100.00
60244;BME280;46106;51.468;5.814;2023-10-19T04:57:35;98951.44;;;13.51;100.00
60244;BME280;46106;51.468;5.814;2023-10-19T05:00:01;98952.50;;;13.50;100.00
60244;BME280;46106;51.468;5.814;2023-10-19T05:02:28;98951.53;;;13.42;100.00
60244;BME280;46106;51.468;5.814;2023-10-19T05:04:54;98947.09;;;13.41;100.00
60244;BME280;46106;51.468;5.814;2023-10-19T05:07:20;98956.00;;;13.44;100.00
60244;BME280;46106;51.468;5.814;2023-10-19T05:09:46;98954.47;;;13.41;100.00
60244;BME280;46106;51.468;5.814;2023-10-19T05:12:13;98949.16;;;13.39;100.00
60244;BME280;46106;51.468;5.814;2023-10-19T05:14:40;98955.06;;;13.36;100.00
60244;BME280;46106;51.468;5.814;2023-10-19T05:17:09;98959.47;;;13.37;100.00
60244;BME280;46106;51.468;5.814;2023-10-19T05:19:36;98953.50;;;13.34;100.00
60244;BME280;46106;51.468;5.814;2023-10-19T05:22:04;98956.72;;;13.37;100.00
60244;BME280;46106;51.468;5.814;2023-10-19T05:24:31;98953.00;;;13.30;100.00
60244;BME280;46106;51.468;5.814;2023-10-19T05:26:57;98960.72;;;13.35;100.00
60244;BME280;46106;51.468;5.814;2023-10-19T05:29:23;98956.13;;;13.27;100.00
60244;BME280;46106;51.468;5.814;2023-10-19T05:31:53;98955.09;;;13.28;100.00
60244;BME280;46106;51.468;5.814;2023-10-19T05:34:23;98958.88;;;13.27;100.00
60244;BME280;46106;51.468;5.814;2023-10-19T05:36:49;98961.25;;;13.30;100.00
60244;BME280;46106;51.468;5.814;2023-10-19T05:39:15;98961.56;;;13.35;100.00
60244;BME280;46106;51.468;5.814;2023-10-19T05:41:42;98965.16;;;13.36;100.00
60244;BME280;46106;51.468;5.814;2023-10-19T05:44:08;98970.09;;;13.40;100.00
60244;BME280;46106;51.468;5.814;2023-10-19T05:46:33;98963.59;;;13.41;100.00
60244;BME280;46106;51.468;5.814;2023-10-19T05:48:59;98974.22;;;13.45;100.00
60244;BME280;46106;51.468;5.814;2023-10-19T05:51:28;98983.97;;;13.47;100.00
60244;BME280;46106;51.468;5.814;2023-10-19T05:53:53;98978.47;;;13.47;100.00
60244;BME280;46106;51.468;5.814;2023-10-19T05:56:26;98981.59;;;13.59;100.00
60244;BME280;46106;51.468;5.814;2023-10-19T05:58:52;98976.69;;;13.54;100.00
60244;BME280;46106;51.468;5.814;2023-10-19T06:01:19;98984.94;;;13.54;100.00
60244;BME280;46106;51.468;5.814;2023-10-19T06:03:45;98979.03;;;13.57;100.00
60244;BME280;46106;51.468;5.814;2023-10-19T06:06:10;98980.75;;;13.58;100.00
60244;BME280;46106;51.468;5.814;2023-10-19T06:08:37;98979.81;;;13.51;100.00
60244;BME280;46106;51.468;5.814;2023-10-19T06:11:04;98984.16;;;13.60;100.00
60244;BME280;46106;51.468;5.814;2023-10-19T06:13:30;98986.44;;;13.57;100.00
60244;BME280;46106;51.468;5.814;2023-10-19T06:15:56;98993.66;;;13.58;100.00
60244;BME280;46106;51.468;5.814;2023-10-19T06:18:21;98987.88;;;13.53;100.00
60244;BME280;46106;51.468;5.814;2023-10-19T06:20:48;98990.13;;;13.49;100.00
60244;BME280;46106;51.468;5.814;2023-10-19T06:23:16;98992.03;;;13.49;100.00
60244;BME280;46106;51.468;5.814;2023-10-19T06:25:44;98994.03;;;13.55;100.00
60244;BME280;46106;51.468;5.814;2023-10-19T06:28:09;98988.53;;;13.55;100.00
60244;BME280;46106;51.468;5.814;2023-10-19T06:30:36;98994.50;;;13.58;100.00
60244;BME280;46106;51.468;5.814;2023-10-19T06:33:02;98988.16;;;13.58;100.00
60244;BME280;46106;51.468;5.814;2023-10-19T06:35:29;98991.56;;;13.60;100.00
60244;BME280;46106;51.468;5.814;2023-10-19T06:37:57;98984.69;;;13.79;100.00
60244;BME280;46106;51.468;5.814;2023-10-19T06:40:30;98992.53;;;13.82;100.00
60244;BME280;46106;51.468;5.814;2023-10-19T06:42:58;98998.16;;;13.89;100.00
60244;BME280;46106;51.468;5.814;2023-10-19T06:45:24;99000.59;;;13.84;100.00
60244;BME280;46106;51.468;5.814;2023-10-19T06:48:10;98995.88;;;14.07;100.00
60244;BME280;46106;51.468;5.814;2023-10-19T06:50:37;99006.00;;;14.07;100.00
60244;BME280;46106;51.468;5.814;2023-10-19T06:53:03;98995.69;;;14.09;100.00
60244;BME280;46106;51.468;5.814;2023-10-19T06:55:32;99002.78;;;14.18;100.00
60244;BME280;46106;51.468;5.814;2023-10-19T06:57:58;99004.31;;;14.21;100.00
60244;BME280;46106;51.468;5.814;2023-10-19T07:00:25;98999.84;;;14.20;100.00
60244;BME280;46106;51.468;5.814;2023-10-19T07:02:55;99004.03;;;14.30;100.00
60244;BME280;46106;51.468;5.814;2023-10-19T07:05:23;99004.28;;;14.36;100.00
60244;BME280;46106;51.468;5.814;2023-10-19T07:07:51;99006.19;;;14.35;100.00
60244;BME280;46106;51.468;5.814;2023-10-19T07:10:20;99011.13;;;14.40;100.00
60244;BME280;46106;51.468;5.814;2023-10-19T07:12:47;99008.66;;;14.45;100.00
60244;BME280;46106;51.468;5.814;2023-10-19T07:15:14;99013.19;;;14.52;100.00
60244;BME280;46106;51.468;5.814;2023-10-19T07:17:40;99013.97;;;14.61;100.00
60244;BME280;46106;51.468;5.814;2023-10-19T07:20:07;99016.63;;;14.69;100.00
60244;BME280;46106;51.468;5.814;2023-10-19T07:22:36;99019.91;;;14.80;100.00
60244;BME280;46106;51.468;5.814;2023-10-19T07:25:07;99015.13;;;14.88;100.00
60244;BME280;46106;51.468;5.814;2023-10-19T07:27:35;99017.09;;;14.95;100.00
60244;BME280;46106;51.468;5.814;2023-10-19T07:30:02;99017.38;;;15.00;100.00
60244;BME280;46106;51.468;5.814;2023-10-19T07:32:31;99013.97;;;14.98;100.00
60244;BME280;46106;51.468;5.814;2023-10-19T07:34:58;99011.41;;;14.96;100.00
60244;BME280;46106;51.468;5.814;2023-10-19T07:37:26;99001.22;;;14.97;100.00
60244;BME280;46106;51.468;5.814;2023-10-19T07:39:52;99002.75;;;14.99;100.00
60244;BME280;46106;51.468;5.814;2023-10-19T07:42:22;98992.28;;;14.95;100.00
60244;BME280;46106;51.468;5.814;2023-10-19T07:44:47;99008.19;;;14.93;100.00
60244;BME280;46106;51.468;5.814;2023-10-19T07:47:14;99006.47;;;14.92;100.00
60244;BME280;46106;51.468;5.814;2023-10-19T07:49:39;99004.09;;;14.88;100.00
60244;BME280;46106;51.468;5.814;2023-10-19T07:52:06;99000.56;;;14.95;100.00
60244;BME280;46106;51.468;5.814;2023-10-19T07:54:36;99007.34;;;14.92;100.00
60244;BME280;46106;51.468;5.814;2023-10-19T07:57:03;99004.16;;;14.95;100.00
60244;BME280;46106;51.468;5.814;2023-10-19T07:59:31;98999.34;;;14.97;100.00
60244;BME280;46106;51.468;5.814;2023-10-19T08:01:57;98998.34;;;15.05;100.00
60244;BME280;46106;51.468;5.814;2023-10-19T08:04:22;98995.25;;;15.15;100.00
60244;BME280;46106;51.468;5.814;2023-10-19T08:06:49;98985.75;;;15.17;100.00
60244;BME280;46106;51.468;5.814;2023-10-19T08:09:15;98988.94;;;15.21;100.00
60244;BME280;46106;51.468;5.814;2023-10-19T08:11:50;98981.25;;;15.16;100.00
60244;BME280;46106;51.468;5.814;2023-10-19T08:14:22;98978.44;;;15.31;100.00
60244;BME280;46106;51.468;5.814;2023-10-19T08:16:49;98973.09;;;15.30;100.00
60244;BME280;46106;51.468;5.814;2023-10-19T08:19:15;98975.91;;;15.36;100.00
60244;BME280;46106;51.468;5.814;2023-10-19T08:21:40;98979.56;;;15.37;100.00
60244;BME280;46106;51.468;5.814;2023-10-19T08:24:07;98980.66;;;15.42;100.00
60244;BME280;46106;51.468;5.814;2023-10-19T08:26:39;98972.97;;;15.38;100.00
60244;BME280;46106;51.468;5.814;2023-10-19T08:29:05;98976.59;;;15.38;100.00
60244;BME280;46106;51.468;5.814;2023-10-19T08:31:41;98963.66;;;15.39;100.00
60244;BME280;46106;51.468;5.814;2023-10-19T08:34:10;98976.41;;;15.40;100.00
60244;BME280;46106;51.468;5.814;2023-10-19T08:36:37;98977.19;;;15.34;100.00
60244;BME280;46106;51.468;5.814;2023-10-19T08:39:10;98982.13;;;15.38;100.00
60244;BME280;46106;51.468;5.814;2023-10-19T08:41:39;98976.22;;;15.41;100.00
60244;BME280;46106;51.468;5.814;2023-10-19T08:44:05;98971.19;;;15.52;100.00
60244;BME280;46106;51.468;5.814;2023-10-19T08:46:43;98963.44;;;15.69;100.00
60244;BME280;46106;51.468;5.814;2023-10-19T08:49:14;98967.88;;;15.63;100.00
60244;BME280;46106;51.468;5.814;2023-10-19T08:51:43;98964.19;;;15.77;100.00
60244;BME280;46106;51.468;5.814;2023-10-19T08:54:13;98959.03;;;15.74;100.00
60244;BME280;46106;51.468;5.814;2023-10-19T08:56:40;98958.38;;;16.01;100.00
60244;BME280;46106;51.468;5.814;2023-10-19T08:59:09;98962.72;;;16.23;100.00
60244;BME280;46106;51.468;5.814;2023-10-19T09:01:36;98964.28;;;16.87;100.00
60244;BME280;46106;51.468;5.814;2023-10-19T09:04:02;98953.69;;;17.18;100.00
60244;BME280;46106;51.468;5.814;2023-10-19T09:06:28;98955.19;;;17.14;100.00
60244;BME280;46106;51.468;5.814;2023-10-19T09:08:55;98951.53;;;17.20;100.00
60244;BME280;46106;51.468;5.814;2023-10-19T09:11:20;98944.94;;;17.61;100.00
60244;BME280;46106;51.468;5.814;2023-10-19T09:13:51;98941.31;;;17.60;100.00
60244;BME280;46106;51.468;5.814;2023-10-19T09:16:21;98942.59;;;17.38;100.00
60244;BME280;46106;51.468;5.814;2023-10-19T09:18:48;98939.63;;;16.99;100.00
60244;BME280;46106;51.468;5.814;2023-10-19T09:21:19;98944.31;;;17.12;100.00
60244;BME280;46106;51.468;5.814;2023-10-19T09:23:52;98945.38;;;17.11;100.00
60244;BME280;46106;51.468;5.814;2023-10-19T09:26:20;98939.63;;;17.13;100.00
60244;BME280;46106;51.468;5.814;2023-10-19T09:28:48;98936.03;;;17.19;100.00
60244;BME280;46106;51.468;5.814;2023-10-19T09:31:14;98933.66;;;16.89;100.00
60244;BME280;46106;51.468;5.814;2023-10-19T09:33:43;98929.88;;;17.23;100.00
60244;BME280;46106;51.468;5.814;2023-10-19T09:36:09;98936.00;;;17.45;100.00
60244;BME280;46106;51.468;5.814;2023-10-19T09:38:50;98933.66;;;17.42;100.00
60244;BME280;46106;51.468;5.814;2023-10-19T09:41:20;98933.44;;;17.64;100.00
60244;BME280;46106;51.468;5.814;2023-10-19T09:44:01;98943.47;;;17.45;100.00
60244;BME280;46106;51.468;5.814;2023-10-19T09:46:32;98936.66;;;17.27;100.00
60244;BME280;46106;51.468;5.814;2023-10-19T09:49:00;98936.66;;;17.21;100.00
60244;BME280;46106;51.468;5.814;2023-10-19T09:51:26;98929.88;;;17.17;100.00
60244;BME280;46106;51.468;5.814;2023-10-19T09:56:28;98933.69;;;17.02;100.00
60244;BME280;46106;51.468;5.814;2023-10-19T09:58:57;98930.91;;;17.09;100.00
60244;BME280;46106;51.468;5.814;2023-10-19T10:01:25;98922.00;;;17.27;100.00
60244;BME280;46106;51.468;5.814;2023-10-19T10:03:52;98925.19;;;17.17;100.00
60244;BME280;46106;51.468;5.814;2023-10-19T10:09:19;98916.03;;;17.37;100.00
60244;BME280;46106;51.468;5.814;2023-10-19T10:12:18;98914.53;;;17.41;100.00
60244;BME280;46106;51.468;5.814;2023-10-19T10:15:01;98915.16;;;17.36;100.00
60244;BME280;46106;51.468;5.814;2023-10-19T10:17:28;98907.06;;;17.28;100.00
60244;BME280;46106;51.468;5.814;2023-10-19T10:22:42;98911.97;;;17.33;100.00
60244;BME280;46106;51.468;5.814;2023-10-19T10:25:25;98914.75;;;17.19;100.00
60244;BME280;46106;51.468;5.814;2023-10-19T10:27:52;98908.38;;;17.19;100.00
60244;BME280;46106;51.468;5.814;2023-10-19T10:30:19;98913.69;;;17.20;100.00
60244;BME280;46106;51.468;5.814;2023-10-19T10:32:51;98913.03;;;17.12;100.00
60244;BME280;46106;51.468;5.814;2023-10-19T10:38:10;98903.03;;;17.37;100.00
60244;BME280;46106;51.468;5.814;2023-10-19T10:40:46;98907.72;;;17.30;100.00
60244;BME280;46106;51.468;5.814;2023-10-19T10:43:15;98897.72;;;17.36;100.00
60244;BME280;46106;51.468;5.814;2023-10-19T10:45:41;98900.06;;;17.32;100.00
60244;BME280;46106;51.468;5.814;2023-10-19T10:48:18;98898.78;;;17.48;100.00
60244;BME280;46106;51.468;5.814;2023-10-19T10:50:47;98904.50;;;17.60;100.00
60244;BME280;46106;51.468;5.814;2023-10-19T10:53:13;98907.88;;;17.69;100.00
60244;BME280;46106;51.468;5.814;2023-10-19T10:55:42;98918.50;;;17.78;100.00
60244;BME280;46106;51.468;5.814;2023-10-19T10:58:08;98909.41;;;17.64;100.00
60244;BME280;46106;51.468;5.814;2023-10-19T11:00:34;98919.38;;;17.72;100.00
60244;BME280;46106;51.468;5.814;2023-10-19T11:03:07;98922.13;;;17.72;100.00
60244;BME280;46106;51.468;5.814;2023-10-19T11:05:37;98922.78;;;17.74;100.00
60244;BME280;46106;51.468;5.814;2023-10-19T11:08:06;98918.75;;;17.63;100.00
60244;BME280;46106;51.468;5.814;2023-10-19T11:10:33;98901.91;;;17.78;100.00
60244;BME280;46106;51.468;5.814;2023-10-19T11:13:09;98899.13;;;17.78;100.00
60244;BME280;46106;51.468;5.814;2023-10-19T11:15:37;98902.75;;;17.72;100.00
60244;BME280;46106;51.468;5.814;2023-10-19T11:18:03;98887.41;;;17.83;100.00
60244;BME280;46106;51.468;5.814;2023-10-19T11:20:29;98874.25;;;17.72;100.00
60244;BME280;46106;51.468;5.814;2023-10-19T11:22:56;98876.97;;;17.78;100.00
60244;BME280;46106;51.468;5.814;2023-10-19T11:25:29;98875.94;;;17.79;100.00
60244;BME280;46106;51.468;5.814;2023-10-19T11:27:56;98885.94;;;17.94;100.00
60244;BME280;46106;51.468;5.814;2023-10-19T11:30:29;98877.38;;;17.95;100.00
60244;BME280;46106;51.468;5.814;2023-10-19T11:32:56;98869.91;;;18.03;100.00
60244;BME280;46106;51.468;5.814;2023-10-19T11:35:25;98868.66;;;17.92;100.00
60244;BME280;46106;51.468;5.814;2023-10-19T11:37:53;98869.94;;;17.96;100.00
60244;BME280;46106;51.468;5.814;2023-10-19T11:40:23;98869.50;;;17.99;100.00
60244;BME280;46106;51.468;5.814;2023-10-19T11:42:49;98868.88;;;17.83;100.00
60244;BME280;46106;51.468;5.814;2023-10-19T11:45:16;98869.78;;;17.77;100.00
60244;BME280;46106;51.468;5.814;2023-10-19T11:47:43;98871.22;;;17.80;100.00
60244;BME280;46106;51.468;5.814;2023-10-19T11:50:08;98862.28;;;17.85;100.00
60244;BME280;46106;51.468;5.814;2023-10-19T11:52:37;98851.44;;;17.76;100.00
60244;BME280;46106;51.468;5.814;2023-10-19T11:55:03;98851.50;;;17.63;100.00
60244;BME280;46106;51.468;5.814;2023-10-19T11:57:31;98847.00;;;17.62;100.00
60244;BME280;46106;51.468;5.814;2023-10-19T11:59:56;98842.53;;;17.61;100.00
60244;BME280;46106;51.468;5.814;2023-10-19T12:02:24;98837.44;;;17.64;100.00
60244;BME280;46106;51.468;5.814;2023-10-19T12:04:50;98836.16;;;17.60;100.00
60244;BME280;46106;51.468;5.814;2023-10-19T12:07:15;98843.84;;;17.52;100.00
60244;BME280;46106;51.468;5.814;2023-10-19T12:09:41;98839.38;;;17.44;100.00
60244;BME280;46106;51.468;5.814;2023-10-19T12:12:07;98841.50;;;17.49;100.00
60244;BME280;46106;51.468;5.814;2023-10-19T12:14:36;98837.47;;;17.44;100.00
60244;BME280;46106;51.468;5.814;2023-10-19T12:17:02;98834.50;;;17.39;100.00
60244;BME280;46106;51.468;5.814;2023-10-19T12:19:29;98828.75;;;17.34;100.00
60244;BME280;46106;51.468;5.814;2023-10-19T12:21:55;98829.63;;;17.41;100.00
60244;BME280;46106;51.468;5.814;2023-10-19T12:24:20;98827.69;;;17.42;100.00
60244;BME280;46106;51.468;5.814;2023-10-19T12:26:46;98835.78;;;17.43;100.00
60244;BME280;46106;51.468;5.814;2023-10-19T12:29:12;98832.59;;;17.47;100.00
60244;BME280;46106;51.468;5.814;2023-10-19T12:31:41;98827.47;;;17.43;100.00
60244;BME280;46106;51.468;5.814;2023-10-19T12:34:07;98826.19;;;17.39;100.00
60244;BME280;46106;51.468;5.814;2023-10-19T12:36:36;98823.22;;;17.34;100.00
60244;BME280;46106;51.468;5.814;2023-10-19T12:39:02;98825.78;;;17.42;100.00
60244;BME280;46106;51.468;5.814;2023-10-19T12:41:30;98818.97;;;17.45;100.00
60244;BME280;46106;51.468;5.814;2023-10-19T12:43:57;98822.16;;;17.42;100.00
60244;BME280;46106;51.468;5.814;2023-10-19T12:46:34;98817.06;;;17.39;100.00
60244;BME280;46106;51.468;5.814;2023-10-19T12:49:04;98813.63;;;17.50;100.00
60244;BME280;46106;51.468;5.814;2023-10-19T12:51:34;98815.09;;;17.59;100.00
60244;BME280;46106;51.468;5.814;2023-10-19T12:54:00;98809.53;;;17.66;100.00
60244;BME280;46106;51.468;5.814;2023-10-19T12:56:28;98805.94;;;17.59;100.00
60244;BME280;46106;51.468;5.814;2023-10-19T12:58:54;98820.38;;;17.61;100.00
60244;BME280;46106;51.468;5.814;2023-10-19T13:01:19;98805.50;;;17.62;100.00
60244;BME280;46106;51.468;5.814;2023-10-19T13:03:47;98796.28;;;17.81;100.00
60244;BME280;46106;51.468;5.814;2023-10-19T13:06:16;98801.81;;;17.81;100.00
60244;BME280;46106;51.468;5.814;2023-10-19T13:08:42;98803.16;;;17.59;100.00
60244;BME280;46106;51.468;5.814;2023-10-19T13:11:08;98799.81;;;17.43;100.00